createdAt,value
2022-08-03T00:01:45.402Z,3.30
2022-08-03T00:08:00.755Z,3.33
2022-08-03T00:10:31.249Z,4.00
2022-08-03T00:12:59.322Z,6.00
2022-08-03T00:15:27.472Z,3.90
2022-08-03T00:17:55.551Z,4.53
2022-08-03T00:20:23.855Z,4.53
2022-08-03T00:22:52.317Z,3.43
2022-08-03T00:25:22.632Z,4.43
2022-08-03T00:27:52.015Z,4.90
2022-08-03T00:30:20.197Z,4.17
2022-08-03T00:32:48.284Z,3.90
2022-08-03T00:35:32.539Z,3.70
2022-08-03T00:38:04.690Z,3.57
2022-08-03T00:40:33.069Z,3.10
2022-08-03T00:43:03.737Z,3.23
2022-08-03T00:45:33.647Z,4.50
2022-08-03T00:48:02.105Z,4.33
2022-08-03T00:50:31.889Z,4.57
2022-08-03T00:53:00.695Z,3.53
2022-08-03T00:55:28.893Z,3.53
2022-08-03T00:57:59.500Z,3.17
2022-08-03T01:00:29.443Z,3.40
2022-08-03T01:02:57.618Z,3.60
2022-08-03T01:05:26.243Z,4.20
2022-08-03T01:08:03.775Z,5.63
2022-08-03T01:10:40.494Z,3.20
2022-08-03T01:14:01.175Z,4.50
2022-08-03T01:16:17.652Z,4.10
2022-08-03T01:18:53.469Z,3.60
2022-08-03T01:21:29.905Z,4.30
2022-08-03T01:24:07.972Z,4.73
2022-08-03T01:27:04.111Z,4.17
2022-08-03T01:29:58.478Z,4.80
2022-08-03T01:32:59.769Z,4.37
2022-08-03T01:35:28.001Z,5.00
2022-08-03T01:38:01.000Z,3.33
2022-08-03T01:40:30.774Z,5.20
2022-08-03T01:43:01.550Z,4.40
2022-08-03T01:45:34.031Z,3.60
2022-08-03T01:48:03.616Z,3.60
2022-08-03T01:50:34.376Z,4.33
2022-08-03T01:53:05.396Z,3.57
2022-08-03T01:55:36.163Z,4.70
2022-08-03T01:58:06.808Z,3.57
2022-08-03T02:00:38.072Z,5.20
2022-08-03T02:03:07.800Z,4.30
2022-08-03T02:05:37.372Z,4.73
2022-08-03T02:08:09.010Z,4.60
2022-08-03T02:10:38.752Z,3.93
2022-08-03T02:13:09.223Z,4.50
2022-08-03T02:15:39.790Z,4.30
2022-08-03T02:18:12.080Z,3.40
2022-08-03T02:20:45.342Z,4.10
2022-08-03T02:23:13.904Z,4.03
2022-08-03T02:25:46.902Z,4.60
2022-08-03T02:28:19.044Z,3.53
2022-08-03T02:30:54.083Z,3.60
2022-08-03T02:33:28.225Z,3.40
2022-08-03T02:35:58.719Z,4.17
2022-08-03T02:38:32.335Z,4.20
2022-08-03T02:41:02.391Z,3.33
2022-08-03T02:44:01.536Z,4.97
2022-08-03T02:46:26.449Z,6.07
2022-08-03T02:48:56.671Z,4.87
2022-08-03T02:51:25.885Z,4.70
2022-08-03T02:53:56.388Z,4.10
2022-08-03T02:56:26.668Z,3.90
2022-08-03T02:58:59.409Z,3.87
2022-08-03T03:01:32.665Z,4.70
2022-08-03T03:04:02.064Z,4.27
2022-08-03T03:06:31.872Z,3.60
2022-08-03T03:09:01.261Z,3.40
2022-08-03T03:11:30.399Z,3.80
2022-08-03T03:13:59.461Z,3.23
2022-08-03T03:16:29.526Z,4.50
2022-08-03T03:18:59.610Z,4.10
2022-08-03T03:21:28.859Z,4.33
2022-08-03T03:23:57.283Z,4.23
2022-08-03T03:26:25.351Z,4.63
2022-08-03T03:28:53.712Z,4.47
2022-08-03T03:31:22.038Z,3.00
2022-08-03T03:33:50.185Z,3.60
2022-08-03T03:36:19.820Z,5.33
2022-08-03T03:38:47.983Z,3.90
2022-08-03T03:41:16.477Z,3.90
2022-08-03T03:43:45.117Z,3.73
2022-08-03T03:46:13.941Z,4.30
2022-08-03T03:48:42.233Z,3.20
2022-08-03T03:51:11.328Z,4.03
2022-08-03T03:53:40.819Z,3.83
2022-08-03T03:56:08.865Z,3.93
2022-08-03T03:58:39.882Z,4.23
2022-08-03T04:01:08.926Z,5.10
2022-08-03T04:03:37.077Z,3.73
2022-08-03T04:06:22.602Z,3.87
2022-08-03T04:09:09.402Z,5.17
2022-08-03T04:11:41.650Z,4.63
2022-08-03T04:14:13.220Z,4.03
2022-08-03T04:16:44.281Z,4.30
2022-08-03T04:19:17.471Z,2.53
2022-08-03T04:21:53.896Z,4.33
2022-08-03T04:24:30.356Z,2.90
2022-08-03T04:27:00.284Z,3.73
2022-08-03T04:29:34.197Z,4.80
2022-08-03T04:32:03.267Z,7.27
2022-08-03T04:34:32.021Z,4.53
2022-08-03T04:37:03.031Z,4.50
2022-08-03T04:39:33.950Z,5.50
2022-08-03T04:42:09.291Z,4.63
2022-08-03T04:44:40.524Z,4.40
2022-08-03T04:47:09.196Z,5.10
2022-08-03T04:49:38.605Z,5.13
2022-08-03T04:52:09.994Z,3.50
2022-08-03T04:54:50.300Z,5.70
2022-08-03T04:57:22.866Z,4.87
2022-08-03T04:59:58.170Z,4.60
2022-08-03T05:02:30.881Z,4.17
2022-08-03T05:04:58.996Z,4.47
2022-08-03T05:07:35.824Z,4.50
2022-08-03T05:10:16.446Z,5.67
2022-08-03T05:12:46.722Z,5.20
2022-08-03T05:15:16.975Z,7.27
2022-08-03T05:17:45.539Z,5.40
2022-08-03T05:20:16.590Z,6.97
2022-08-03T05:22:47.068Z,5.67
2022-08-03T05:25:17.341Z,5.53
2022-08-03T05:27:48.781Z,3.50
2022-08-03T05:30:30.620Z,3.80
2022-08-03T05:33:03.415Z,4.47
2022-08-03T05:36:01.412Z,4.57
2022-08-03T05:38:28.826Z,4.50
2022-08-03T05:41:22.065Z,5.33
2022-08-03T05:43:52.630Z,7.17
2022-08-03T05:46:21.431Z,4.87
2022-08-03T05:48:49.685Z,7.00
2022-08-03T05:51:17.957Z,5.70
2022-08-03T05:53:46.289Z,6.20
2022-08-03T05:56:16.570Z,6.37
2022-08-03T05:58:46.641Z,7.40
2022-08-03T06:01:15.268Z,8.07
2022-08-03T06:03:43.394Z,5.53
2022-08-03T06:06:15.139Z,6.07
2022-08-03T06:08:44.477Z,8.40
2022-08-03T06:11:12.666Z,8.03
2022-08-03T06:13:42.397Z,7.10
2022-08-03T06:16:10.564Z,8.03
2022-08-03T06:18:39.113Z,10.60
2022-08-03T06:21:15.492Z,7.60
2022-08-03T06:23:53.947Z,6.77
2022-08-03T06:26:25.139Z,6.17
2022-08-03T06:28:55.290Z,8.33
2022-08-03T06:31:32.963Z,8.53
2022-08-03T06:34:34.016Z,7.30
2022-08-03T06:36:58.465Z,8.30
2022-08-03T06:39:30.536Z,11.00
2022-08-03T06:41:58.930Z,6.37
2022-08-03T06:44:28.389Z,6.23
2022-08-03T06:46:58.967Z,7.60
2022-08-03T06:49:27.471Z,8.10
2022-08-03T06:52:04.995Z,5.70
2022-08-03T06:54:38.038Z,8.20
2022-08-03T06:57:08.325Z,6.70
2022-08-03T07:00:09.607Z,7.90
2022-08-03T07:02:28.256Z,6.47
2022-08-03T07:04:57.155Z,8.57
2022-08-03T07:07:25.268Z,11.03
2022-08-03T07:09:55.706Z,15.97
2022-08-03T07:12:27.269Z,9.67
2022-08-03T07:15:00.813Z,8.33
2022-08-03T07:17:31.611Z,12.47
2022-08-03T07:20:00.539Z,18.13
2022-08-03T07:22:28.715Z,15.37
2022-08-03T07:24:57.648Z,13.20
2022-08-03T07:27:27.102Z,14.40
2022-08-03T07:29:56.692Z,8.97
2022-08-03T07:32:25.032Z,7.53
2022-08-03T07:35:00.120Z,8.53
2022-08-03T07:37:29.292Z,12.87
2022-08-03T07:39:57.640Z,10.23
2022-08-03T07:42:25.810Z,8.63
2022-08-03T07:44:53.920Z,9.73
2022-08-03T07:47:25.696Z,12.80
2022-08-03T07:50:03.278Z,11.67
2022-08-03T07:52:53.597Z,10.67
2022-08-03T07:55:23.586Z,11.50
2022-08-03T07:58:04.767Z,15.07
2022-08-03T08:00:36.031Z,11.00
2022-08-03T08:03:06.316Z,9.80
2022-08-03T08:05:34.924Z,8.27
2022-08-03T08:08:03.316Z,10.80
2022-08-03T08:10:32.764Z,8.80
2022-08-03T08:13:01.796Z,8.70
2022-08-03T08:15:30.248Z,7.50
2022-08-03T08:18:01.018Z,5.77
2022-08-03T08:20:32.469Z,5.00
2022-08-03T08:23:09.614Z,7.87
2022-08-03T08:25:54.844Z,6.27
2022-08-03T08:28:32.558Z,6.43
2022-08-03T08:31:01.525Z,6.30
2022-08-03T08:33:47.928Z,6.83
2022-08-03T08:36:18.999Z,7.67
2022-08-03T08:38:47.441Z,5.60
2022-08-03T08:41:16.143Z,6.07
2022-08-03T08:43:44.900Z,4.10
2022-08-03T08:46:23.383Z,5.07
2022-08-03T08:48:53.149Z,6.40
2022-08-03T08:51:23.748Z,4.60
2022-08-03T08:54:13.766Z,4.50
2022-08-03T08:56:45.034Z,5.23
2022-08-03T08:59:13.342Z,7.13
2022-08-03T09:01:41.480Z,6.67
2022-08-03T09:04:10.364Z,4.90
2022-08-03T09:06:39.848Z,4.80
2022-08-03T09:09:08.433Z,6.00
2022-08-03T09:12:00.356Z,4.73
2022-08-03T09:14:36.917Z,7.10
2022-08-03T09:17:08.936Z,4.07
2022-08-03T09:20:03.624Z,7.17
2022-08-03T09:22:34.416Z,6.67
2022-08-03T09:25:23.895Z,5.83
2022-08-03T09:27:53.423Z,7.47
2022-08-03T09:30:34.225Z,5.70
2022-08-03T09:33:04.065Z,5.10
2022-08-03T09:35:53.042Z,6.33
2022-08-03T09:38:26.442Z,4.17
2022-08-03T09:40:59.905Z,4.20
2022-08-03T09:43:47.563Z,3.83
2022-08-03T09:46:15.627Z,5.73
2022-08-03T09:48:43.696Z,6.37
2022-08-03T09:52:28.824Z,4.83
2022-08-03T09:54:05.759Z,5.60
2022-08-03T09:56:44.953Z,5.10
2022-08-03T09:59:14.833Z,4.80
2022-08-03T10:01:43.203Z,4.60
2022-08-03T10:04:16.960Z,5.30
2022-08-03T10:06:45.808Z,5.03
2022-08-03T10:09:17.352Z,4.83
2022-08-03T10:11:46.993Z,5.30
2022-08-03T10:14:19.367Z,5.07
2022-08-03T10:16:48.975Z,5.77
2022-08-03T10:19:17.618Z,6.33
2022-08-03T10:21:50.738Z,3.30
2022-08-03T10:24:27.577Z,7.40
2022-08-03T10:27:01.958Z,5.70
2022-08-03T10:29:30.681Z,4.20
2022-08-03T10:32:00.770Z,4.57
2022-08-03T10:34:35.189Z,4.27
2022-08-03T10:37:08.642Z,4.57
2022-08-03T10:39:38.319Z,6.10
2022-08-03T10:42:14.655Z,4.40
2022-08-03T10:44:43.732Z,4.73
2022-08-03T10:47:12.658Z,5.77
2022-08-03T10:49:41.206Z,6.17
2022-08-03T10:52:31.960Z,4.67
2022-08-03T10:55:18.007Z,3.70
2022-08-03T10:57:52.525Z,4.43
2022-08-03T11:00:28.282Z,5.43
2022-08-03T11:03:04.676Z,4.20
2022-08-03T11:05:34.246Z,4.00
2022-08-03T11:08:28.499Z,4.17
2022-08-03T11:11:00.338Z,3.03
2022-08-03T11:13:31.888Z,5.90
2022-08-03T11:16:04.893Z,5.60
2022-08-03T11:18:35.326Z,3.23
2022-08-03T11:21:04.193Z,4.83
2022-08-03T11:24:04.361Z,3.40
2022-08-03T11:26:35.531Z,4.73
2022-08-03T11:29:28.584Z,5.37
2022-08-03T11:31:56.808Z,3.70
2022-08-03T11:34:25.441Z,4.60
2022-08-03T11:37:23.676Z,4.40
2022-08-03T11:39:57.098Z,5.00
2022-08-03T11:42:44.109Z,5.43
2022-08-03T11:45:12.674Z,4.20
2022-08-03T11:47:51.162Z,3.10
2022-08-03T11:50:21.242Z,5.00
2022-08-03T11:52:54.282Z,5.70
2022-08-03T11:55:22.778Z,6.20
2022-08-03T11:59:01.901Z,4.73
2022-08-03T12:00:40.849Z,3.90
2022-08-03T12:03:11.146Z,4.27
2022-08-03T12:05:49.574Z,6.83
2022-08-03T12:08:34.220Z,5.03
2022-08-03T12:11:06.673Z,3.60
2022-08-03T12:14:28.865Z,4.40
2022-08-03T12:16:29.733Z,4.30
2022-08-03T12:18:59.709Z,4.43
2022-08-03T12:21:28.074Z,5.20
2022-08-03T12:23:59.082Z,4.47
2022-08-03T12:26:28.017Z,3.70
2022-08-03T12:28:58.375Z,4.73
2022-08-03T12:31:26.751Z,3.00
2022-08-03T12:34:01.915Z,3.93
2022-08-03T12:36:33.581Z,6.00
2022-08-03T12:39:03.614Z,4.30
2022-08-03T12:41:34.122Z,4.40
2022-08-03T12:44:04.826Z,5.17
2022-08-03T12:46:34.588Z,4.20
2022-08-03T12:49:08.561Z,4.23
2022-08-03T12:51:38.992Z,4.20
2022-08-03T12:54:09.461Z,3.37
2022-08-03T12:56:57.717Z,3.90
2022-08-03T12:59:32.524Z,3.87
2022-08-03T13:02:09.821Z,4.17
2022-08-03T13:04:38.178Z,5.17
2022-08-03T13:07:12.884Z,5.20
2022-08-03T13:09:44.199Z,3.90
2022-08-03T13:12:16.091Z,4.23
2022-08-03T13:14:47.381Z,4.50
2022-08-03T13:17:16.932Z,3.90
2022-08-03T13:19:46.101Z,4.33
2022-08-03T13:22:21.765Z,4.27
2022-08-03T13:24:51.995Z,3.53
2022-08-03T13:28:01.464Z,5.03
2022-08-03T13:30:11.147Z,4.07
2022-08-03T13:32:39.808Z,3.70
2022-08-03T13:35:09.094Z,3.83
2022-08-03T13:37:37.589Z,3.50
2022-08-03T13:40:08.281Z,3.77
2022-08-03T13:42:39.861Z,3.00
2022-08-03T13:45:09.291Z,4.20
2022-08-03T13:47:38.911Z,4.17
2022-08-03T13:50:07.580Z,3.00
2022-08-03T13:52:36.775Z,3.30
2022-08-03T13:55:06.491Z,5.00
2022-08-03T13:58:02.774Z,4.00
2022-08-03T14:00:29.231Z,3.93
2022-08-03T14:03:13.664Z,3.03
2022-08-03T14:05:42.977Z,3.00
2022-08-03T14:08:12.103Z,2.90
2022-08-03T14:10:43.009Z,2.97
2022-08-03T14:13:12.410Z,3.10
2022-08-03T14:15:40.634Z,3.20
2022-08-03T14:18:15.869Z,3.43
2022-08-03T14:20:57.966Z,3.00
2022-08-03T14:23:27.814Z,4.37
2022-08-03T14:25:55.864Z,3.40
2022-08-03T14:28:25.291Z,5.17
2022-08-03T14:30:55.889Z,4.50
2022-08-03T14:33:25.872Z,4.10
2022-08-03T14:35:57.502Z,3.90
2022-08-03T14:38:25.854Z,3.57
2022-08-03T14:40:54.190Z,3.10
2022-08-03T14:43:22.584Z,4.17
2022-08-03T14:45:52.345Z,3.10
2022-08-03T14:50:32.570Z,7.40
2022-08-03T14:51:10.311Z,2.90
2022-08-03T14:53:41.729Z,3.50
2022-08-03T14:56:10.977Z,4.90
2022-08-03T14:58:39.637Z,3.07
2022-08-03T15:02:04.701Z,3.67
2022-08-03T15:03:56.788Z,2.63
2022-08-03T15:06:26.238Z,7.10
2022-08-03T15:11:42.795Z,4.07
2022-08-03T15:14:10.899Z,5.07
2022-08-03T15:16:42.032Z,4.90
2022-08-03T15:20:00.774Z,4.00
2022-08-03T15:22:01.097Z,4.27
2022-08-03T15:24:30.221Z,5.10
2022-08-03T15:26:58.488Z,5.20
2022-08-03T15:30:08.743Z,3.20
2022-08-03T15:32:14.783Z,3.57
2022-08-03T15:34:50.583Z,3.57
2022-08-03T15:37:22.006Z,4.77
2022-08-03T15:39:59.370Z,3.50
2022-08-03T15:42:30.286Z,5.27
2022-08-03T15:45:04.948Z,4.40
2022-08-03T15:47:33.007Z,4.67
2022-08-03T15:50:01.060Z,4.10
2022-08-03T15:52:33.414Z,5.80
2022-08-03T15:55:01.456Z,3.87
2022-08-03T15:57:29.489Z,3.13
2022-08-03T15:59:57.583Z,3.87
2022-08-03T16:02:28.688Z,3.93
2022-08-03T16:04:56.825Z,3.93
2022-08-03T16:07:38.909Z,3.00
2022-08-03T16:10:09.090Z,4.03
2022-08-03T16:12:37.190Z,3.80
2022-08-03T16:15:06.500Z,4.37
2022-08-03T16:17:34.616Z,4.30
2022-08-03T16:20:07.428Z,4.23
2022-08-03T16:22:43.944Z,4.30
2022-08-03T16:25:16.523Z,3.33
2022-08-03T16:28:00.600Z,2.83
2022-08-03T16:30:34.703Z,4.23
2022-08-03T16:33:02.801Z,3.63
2022-08-03T16:35:31.106Z,3.70
2022-08-03T16:37:59.429Z,3.17
2022-08-03T16:40:29.121Z,4.07
2022-08-03T16:42:57.196Z,3.90
2022-08-03T16:45:25.979Z,3.60
2022-08-03T16:48:05.337Z,3.20
2022-08-03T16:50:37.005Z,4.03
2022-08-03T16:53:09.034Z,3.20
2022-08-03T16:55:50.142Z,5.13
2022-08-03T16:58:42.804Z,4.83
2022-08-03T17:01:24.340Z,3.90
2022-08-03T17:04:01.438Z,4.00
2022-08-03T17:06:34.975Z,4.53
2022-08-03T17:09:08.679Z,4.00
2022-08-03T17:11:46.621Z,4.33
2022-08-03T17:14:16.362Z,3.80
2022-08-03T17:16:52.440Z,3.90
2022-08-03T17:19:23.769Z,3.47
2022-08-03T17:21:59.758Z,4.30
2022-08-03T17:24:33.782Z,4.17
2022-08-03T17:27:08.943Z,4.00
2022-08-03T17:29:44.951Z,4.47
2022-08-03T17:32:21.290Z,4.87
2022-08-03T17:34:50.127Z,4.60
2022-08-03T17:37:50.017Z,6.43
2022-08-03T17:40:11.994Z,4.27
2022-08-03T17:42:50.541Z,4.70
2022-08-03T17:45:20.322Z,4.33
2022-08-03T17:47:56.939Z,4.90
2022-08-03T17:50:35.488Z,5.73
2022-08-03T17:53:07.780Z,4.67
2022-08-03T17:55:57.602Z,4.87
2022-08-03T17:58:41.428Z,4.30
2022-08-03T18:02:00.050Z,4.80
2022-08-03T18:04:29.725Z,6.23
2022-08-03T18:07:00.494Z,5.23
2022-08-03T18:10:04.945Z,4.63
2022-08-03T18:12:44.953Z,4.70
2022-08-03T18:15:22.055Z,5.70
2022-08-03T18:17:55.337Z,5.57
2022-08-03T18:20:40.398Z,5.90
2022-08-03T18:23:11.425Z,5.47
2022-08-03T18:25:57.896Z,5.77
2022-08-03T18:28:27.902Z,5.70
2022-08-03T18:30:58.755Z,3.57
2022-08-03T18:34:18.419Z,4.07
2022-08-03T18:36:30.588Z,4.03
2022-08-03T18:39:01.666Z,3.93
2022-08-03T18:41:33.454Z,3.50
2022-08-03T18:44:07.081Z,4.30
2022-08-03T18:46:48.805Z,4.07
2022-08-03T18:49:33.640Z,4.83
2022-08-03T18:52:13.179Z,5.80
2022-08-03T18:55:01.147Z,5.37
2022-08-03T18:57:40.724Z,5.20
2022-08-03T19:00:14.219Z,4.53
2022-08-03T19:02:50.150Z,5.60
2022-08-03T19:08:16.294Z,5.63
2022-08-03T19:10:57.852Z,4.30
2022-08-03T19:13:36.296Z,4.87
2022-08-03T19:16:09.837Z,4.63
2022-08-03T19:18:43.733Z,5.10
2022-08-03T19:21:15.488Z,3.87
2022-08-03T19:23:46.588Z,3.93
2022-08-03T19:26:26.680Z,4.90
2022-08-03T19:29:00.158Z,4.60
2022-08-03T19:31:30.922Z,4.67
2022-08-03T19:34:01.223Z,4.40
2022-08-03T19:36:40.570Z,4.90
2022-08-03T19:39:24.136Z,5.70
2022-08-03T19:41:56.702Z,5.03
2022-08-03T19:44:30.119Z,5.90
2022-08-03T19:47:02.725Z,5.13
2022-08-03T19:49:57.114Z,5.63
2022-08-03T19:52:31.469Z,4.97
2022-08-03T19:55:01.137Z,5.03
2022-08-03T19:57:31.859Z,3.43
2022-08-03T20:00:03.501Z,3.63
2022-08-03T20:02:33.264Z,4.33
2022-08-03T20:05:05.303Z,3.60
2022-08-03T20:07:47.615Z,4.27
2022-08-03T20:10:17.991Z,5.70
2022-08-03T20:12:46.845Z,4.60
2022-08-03T20:15:22.182Z,5.50
2022-08-03T20:18:00.267Z,5.63
2022-08-03T20:20:35.305Z,5.57
2022-08-03T20:23:07.463Z,4.57
2022-08-03T20:25:48.975Z,6.70
2022-08-03T20:28:31.782Z,4.80
2022-08-03T20:31:00.194Z,4.63
2022-08-03T20:33:46.112Z,6.20
2022-08-03T20:36:19.178Z,6.70
2022-08-03T20:41:36.495Z,4.73
2022-08-03T20:44:05.394Z,5.30
2022-08-03T20:46:50.308Z,8.20
2022-08-03T20:49:24.711Z,5.30
2022-08-03T20:51:56.137Z,5.60
2022-08-03T20:54:31.017Z,6.37
2022-08-03T20:57:04.478Z,6.30
2022-08-03T20:59:50.582Z,5.53
2022-08-03T21:02:30.001Z,5.47
2022-08-03T21:05:03.491Z,6.60
2022-08-03T21:08:05.715Z,5.70
2022-08-03T21:10:31.569Z,6.37
2022-08-03T21:13:09.981Z,5.10
2022-08-03T21:13:14.022Z,4.80
2022-08-03T21:13:16.141Z,5.53
2022-08-03T21:16:02.424Z,4.70
2022-08-03T21:18:42.200Z,4.87
2022-08-03T21:21:12.118Z,4.20
2022-08-03T21:23:48.601Z,5.30
2022-08-03T21:26:18.595Z,4.67
2022-08-03T21:28:47.692Z,5.13
2022-08-03T21:31:22.348Z,4.00
2022-08-03T21:33:58.261Z,4.57
2022-08-03T21:36:27.936Z,5.73
2022-08-03T21:38:58.061Z,6.70
2022-08-03T21:41:27.287Z,6.90
2022-08-03T21:43:55.358Z,5.27
2022-08-03T21:46:27.812Z,5.80
2022-08-03T21:50:04.835Z,5.23
2022-08-03T21:51:50.873Z,5.90
2022-08-03T21:54:28.181Z,6.57
2022-08-03T21:56:57.804Z,6.00
2022-08-03T21:59:26.829Z,5.63
2022-08-03T22:01:58.609Z,5.40
2022-08-03T22:04:50.569Z,4.67
2022-08-03T22:07:16.591Z,5.80
2022-08-03T22:09:51.236Z,7.37
2022-08-03T22:12:22.891Z,7.60
2022-08-03T22:15:00.328Z,3.93
2022-08-03T22:17:55.263Z,3.33
2022-08-03T22:20:21.433Z,4.37
2022-08-03T22:22:56.117Z,7.00
2022-08-03T22:25:29.887Z,4.70
2022-08-03T22:27:59.982Z,4.57
2022-08-03T22:30:28.287Z,5.73
2022-08-03T22:32:57.697Z,4.00
2022-08-03T22:35:27.935Z,5.53
2022-08-03T22:37:58.344Z,5.77
2022-08-03T22:40:29.003Z,6.20
2022-08-03T22:42:58.590Z,5.50
2022-08-03T22:46:07.036Z,4.50
2022-08-03T22:48:17.889Z,5.07
2022-08-03T22:50:47.261Z,7.00
2022-08-03T22:53:18.778Z,7.00
2022-08-03T22:55:49.624Z,4.17
2022-08-03T22:58:18.132Z,4.57
2022-08-03T23:00:53.845Z,4.87
2022-08-03T23:03:25.418Z,5.63
2022-08-03T23:06:14.931Z,4.80
2022-08-03T23:08:45.126Z,4.70
2022-08-03T23:11:17.006Z,5.43
2022-08-03T23:13:47.761Z,6.40
2022-08-03T23:16:28.754Z,4.53
2022-08-03T23:19:16.321Z,4.10
2022-08-03T23:22:00.576Z,3.80
2022-08-03T23:24:31.966Z,6.73
2022-08-03T23:27:04.498Z,5.90
2022-08-03T23:29:36.031Z,5.77
2022-08-03T23:32:05.462Z,5.03
2022-08-03T23:34:51.391Z,4.93
2022-08-03T23:37:21.129Z,4.60
2022-08-03T23:39:50.223Z,3.60
2022-08-03T23:42:21.449Z,4.93
2022-08-03T23:44:55.709Z,5.50
2022-08-03T23:47:24.290Z,4.67
2022-08-03T23:50:14.607Z,3.87
2022-08-03T23:52:53.837Z,4.43
2022-08-03T23:55:44.968Z,6.10
2022-08-03T23:58:23.966Z,6.23
